Riverside, WA (98849)

12:22 AM PDT on July 30, 2016 (GMT -0700)
Alkali Lake | | Change Station

Elev 1680 ft 48.53 °N, 119.55 °W | Updated 44 seconds ago

Clear
Clear
76.3 °F
Feels Like 78 °F
N
3.2
Wind Variable Wind from NNW

Today
High -- | Low -- °F
--% Chance of Precip.
Yesterday
High -- | Low -- °F
Precip. -- in
Pressure 29.67 in
Visibility 10.0 miles
Clouds Clear
Heat Index 78 °F
Dew Point 51 °F
Humidity 41%
Rainfall 0.00 in
Snow Depth Not available.
5:31 AM 8:37 PM
Waning Crescent, 15% visible
METAR KOMK 300653Z AUTO 30007KT 10SM CLR 24/08 A2971 RMK AO2 SLP047 T02440083
Pressure 29.67 in
Visibility 10.0 miles
Clouds Clear
Heat Index 78 °F
Dew Point 51 °F
Humidity 41%
Rainfall 0.00 in
Snow Depth Not available.
5:31 AM 8:37 PM
Waning Crescent, 15% visible
METAR KOMK 300653Z AUTO 30007KT 10SM CLR 24/08 A2971 RMK AO2 SLP047 T02440083

10-Day Weather Forecast

Almanac

Astronomy

Jul. 30, 2016 Rise Set
Actual Time
Civil Twilight
Nautical Twilight
Astronomical Twilight
Moon
Length of Visible Light
Length of Day
Tomorrow will be .
, % of the Moon is Illuminated

Today's Extremes

State Highs State Lows

Community

WunderPhotos

Upload Photos

1,928,508 photos uploaded!

WunderBlog® & News

Nearby

Air Quality

  Air Quality AQ Index Pollutant
Not available.

Snow Depth

Station Depth Elevation

Earthquake Activity

City Distance Mag. Time & Date
Minimum magnitude displayed is 2.5.

Coastal Water Temperatures

Place Temperature

Stations

Nearby Weather Stations

Station Location Temp. Windchill Dew Point Humidity Wind Precip. Elev Updated Type
                   

Watches & Warnings

There are currently no watches in effect.